sensor_id;sensor_type;location;lat;lon;timestamp;P1;P4;P2;P0;N10;N4;N25;N1;N05;TS
67700;SPS30;55380;54.156;18.708;2022-08-04T00:00:03;7.4;;7.4;7.0;;;;;;
67700;SPS30;55380;54.156;18.708;2022-08-04T00:02:02;8.2;;7.8;7.0;;;;;;
67700;SPS30;55380;54.156;18.708;2022-08-04T00:04:00;7.6;;7.6;7.2;;;;;;
67700;SPS30;55380;54.156;18.708;2022-08-04T00:06:02;7.4;;7.4;7.0;;;;;;
67700;SPS30;55380;54.156;18.708;2022-08-04T00:08:03;7.8;;7.8;7.4;;;;;;
67700;SPS30;55380;54.156;18.708;2022-08-04T00:10:01;7.8;;7.8;7.4;;;;;;
67700;SPS30;55380;54.156;18.708;2022-08-04T00:12:00;8.0;;8.0;7.6;;;;;;
67700;SPS30;55380;54.156;18.708;2022-08-04T00:14:01;7.9;;7.9;7.5;;;;;;
67700;SPS30;55380;54.156;18.708;2022-08-04T00:16:01;8.2;;8.2;7.8;;;;;;
67700;SPS30;55380;54.156;18.708;2022-08-04T00:18:02;7.5;;7.5;7.1;;;;;;
67700;SPS30;55380;54.156;18.708;2022-08-04T00:20:00;7.2;;7.2;6.8;;;;;;
67700;SPS30;55380;54.156;18.708;2022-08-04T00:22:02;7.5;;7.5;7.1;;;;;;
67700;SPS30;55380;54.156;18.708;2022-08-04T00:24:00;7.4;;7.4;7.0;;;;;;
67700;SPS30;55380;54.156;18.708;2022-08-04T00:26:00;7.2;;7.2;6.8;;;;;;
67700;SPS30;55380;54.156;18.708;2022-08-04T00:28:00;7.4;;7.4;7.0;;;;;;
67700;SPS30;55380;54.156;18.708;2022-08-04T00:30:00;7.4;;7.4;7.0;;;;;;
67700;SPS30;55380;54.156;18.708;2022-08-04T00:32:00;7.3;;7.3;6.9;;;;;;
67700;SPS30;55380;54.156;18.708;2022-08-04T00:34:00;7.4;;7.4;7.0;;;;;;
67700;SPS30;55380;54.156;18.708;2022-08-04T00:36:00;7.7;;7.7;7.3;;;;;;
67700;SPS30;55380;54.156;18.708;2022-08-04T00:38:00;7.3;;7.3;6.9;;;;;;
67700;SPS30;55380;54.156;18.708;2022-08-04T00:40:00;9.1;;9.1;8.6;;;;;;
67700;SPS30;55380;54.156;18.708;2022-08-04T00:44:05;9.8;;9.8;9.3;;;;;;
67700;SPS30;55380;54.156;18.708;2022-08-04T00:46:05;9.0;;9.0;8.5;;;;;;
67700;SPS30;55380;54.156;18.708;2022-08-04T00:48:03;7.2;;7.2;6.8;;;;;;
67700;SPS30;55380;54.156;18.708;2022-08-04T00:50:03;7.3;;7.3;6.9;;;;;;
67700;SPS30;55380;54.156;18.708;2022-08-04T00:52:01;7.6;;7.6;7.2;;;;;;
67700;SPS30;55380;54.156;18.708;2022-08-04T00:54:00;7.3;;7.3;6.9;;;;;;
67700;SPS30;55380;54.156;18.708;2022-08-04T00:56:03;7.8;;7.8;7.4;;;;;;
67700;SPS30;55380;54.156;18.708;2022-08-04T00:58:04;8.2;;8.2;7.8;;;;;;
67700;SPS30;55380;54.156;18.708;2022-08-04T01:00:03;7.2;;7.2;6.8;;;;;;
67700;SPS30;55380;54.156;18.708;2022-08-04T01:02:00;7.9;;7.9;7.5;;;;;;
67700;SPS30;55380;54.156;18.708;2022-08-04T01:04:02;7.9;;7.9;7.5;;;;;;
67700;SPS30;55380;54.156;18.708;2022-08-04T01:06:02;8.0;;8.0;7.6;;;;;;
67700;SPS30;55380;54.156;18.708;2022-08-04T01:08:05;8.2;;8.2;7.8;;;;;;
67700;SPS30;55380;54.156;18.708;2022-08-04T01:10:02;8.3;;8.3;7.8;;;;;;
67700;SPS30;55380;54.156;18.708;2022-08-04T01:12:05;8.7;;8.7;8.2;;;;;;
67700;SPS30;55380;54.156;18.708;2022-08-04T01:14:07;8.4;;8.4;8.0;;;;;;
67700;SPS30;55380;54.156;18.708;2022-08-04T01:16:01;7.9;;7.9;7.4;;;;;;
67700;SPS30;55380;54.156;18.708;2022-08-04T01:18:03;8.5;;8.5;8.1;;;;;;
67700;SPS30;55380;54.156;18.708;2022-08-04T01:20:00;8.3;;8.3;7.9;;;;;;
67700;SPS30;55380;54.156;18.708;2022-08-04T01:22:07;8.4;;8.4;7.9;;;;;;
67700;SPS30;55380;54.156;18.708;2022-08-04T01:24:04;8.0;;8.0;7.6;;;;;;
67700;SPS30;55380;54.156;18.708;2022-08-04T01:26:06;7.8;;7.8;7.4;;;;;;
67700;SPS30;55380;54.156;18.708;2022-08-04T01:28:05;7.9;;7.9;7.4;;;;;;
67700;SPS30;55380;54.156;18.708;2022-08-04T01:30:00;7.4;;7.4;7.0;;;;;;
67700;SPS30;55380;54.156;18.708;2022-08-04T01:32:01;8.2;;8.2;7.8;;;;;;
67700;SPS30;55380;54.156;18.708;2022-08-04T01:34:00;7.9;;7.9;7.5;;;;;;
67700;SPS30;55380;54.156;18.708;2022-08-04T01:36:01;7.7;;7.7;7.3;;;;;;
67700;SPS30;55380;54.156;18.708;2022-08-04T01:38:00;7.8;;7.8;7.3;;;;;;
67700;SPS30;55380;54.156;18.708;2022-08-04T01:40:01;8.9;;8.9;8.5;;;;;;
67700;SPS30;55380;54.156;18.708;2022-08-04T01:42:00;8.0;;8.0;7.5;;;;;;
67700;SPS30;55380;54.156;18.708;2022-08-04T01:44:00;7.7;;7.7;7.3;;;;;;
67700;SPS30;55380;54.156;18.708;2022-08-04T01:46:00;8.2;;8.2;7.7;;;;;;
67700;SPS30;55380;54.156;18.708;2022-08-04T01:48:00;7.6;;7.6;7.2;;;;;;
67700;SPS30;55380;54.156;18.708;2022-08-04T01:50:00;7.8;;7.8;7.4;;;;;;
67700;SPS30;55380;54.156;18.708;2022-08-04T01:52:00;8.8;;8.8;8.3;;;;;;
67700;SPS30;55380;54.156;18.708;2022-08-04T01:54:00;8.5;;8.5;8.1;;;;;;
67700;SPS30;55380;54.156;18.708;2022-08-04T01:56:00;8.8;;8.8;8.3;;;;;;
67700;SPS30;55380;54.156;18.708;2022-08-04T01:58:00;8.6;;8.6;8.1;;;;;;
67700;SPS30;55380;54.156;18.708;2022-08-04T02:00:00;8.0;;8.0;7.6;;;;;;
67700;SPS30;55380;54.156;18.708;2022-08-04T02:02:00;8.5;;8.5;8.0;;;;;;
67700;SPS30;55380;54.156;18.708;2022-08-04T02:04:00;8.2;;8.2;7.7;;;;;;
67700;SPS30;55380;54.156;18.708;2022-08-04T02:06:03;8.0;;8.0;7.5;;;;;;
67700;SPS30;55380;54.156;18.708;2022-08-04T02:08:02;7.9;;7.9;7.4;;;;;;
67700;SPS30;55380;54.156;18.708;2022-08-04T02:10:03;8.1;;8.1;7.7;;;;;;
67700;SPS30;55380;54.156;18.708;2022-08-04T02:12:02;8.4;;8.4;7.9;;;;;;
67700;SPS30;55380;54.156;18.708;2022-08-04T02:14:01;8.7;;8.7;8.3;;;;;;
67700;SPS30;55380;54.156;18.708;2022-08-04T02:16:01;8.9;;8.9;8.4;;;;;;
67700;SPS30;55380;54.156;18.708;2022-08-04T02:18:02;9.1;;9.1;8.6;;;;;;
67700;SPS30;55380;54.156;18.708;2022-08-04T02:20:02;10.3;;10.3;9.7;;;;;;
67700;SPS30;55380;54.156;18.708;2022-08-04T02:22:02;9.0;;9.0;8.5;;;;;;
67700;SPS30;55380;54.156;18.708;2022-08-04T02:24:01;8.8;;8.8;8.3;;;;;;
67700;SPS30;55380;54.156;18.708;2022-08-04T02:26:00;8.4;;8.4;7.9;;;;;;
67700;SPS30;55380;54.156;18.708;2022-08-04T02:28:04;8.1;;8.1;7.6;;;;;;
67700;SPS30;55380;54.156;18.708;2022-08-04T02:30:02;8.3;;8.3;7.9;;;;;;
67700;SPS30;55380;54.156;18.708;2022-08-04T02:32:01;8.6;;8.6;8.2;;;;;;
67700;SPS30;55380;54.156;18.708;2022-08-04T02:34:03;8.4;;8.4;7.9;;;;;;
67700;SPS30;55380;54.156;18.708;2022-08-04T02:36:00;9.0;;9.0;8.5;;;;;;
67700;SPS30;55380;54.156;18.708;2022-08-04T02:38:03;8.2;;8.2;7.7;;;;;;
67700;SPS30;55380;54.156;18.708;2022-08-04T02:40:01;8.3;;8.3;7.9;;;;;;
67700;SPS30;55380;54.156;18.708;2022-08-04T02:42:01;8.9;;8.9;8.4;;;;;;
67700;SPS30;55380;54.156;18.708;2022-08-04T02:44:00;9.0;;9.0;8.5;;;;;;
67700;SPS30;55380;54.156;18.708;2022-08-04T02:46:00;9.5;;9.5;9.0;;;;;;
67700;SPS30;55380;54.156;18.708;2022-08-04T02:48:00;10.0;;10.0;9.4;;;;;;
67700;SPS30;55380;54.156;18.708;2022-08-04T02:50:00;9.7;;9.7;9.1;;;;;;
67700;SPS30;55380;54.156;18.708;2022-08-04T02:52:00;9.0;;9.0;8.5;;;;;;
67700;SPS30;55380;54.156;18.708;2022-08-04T02:54:01;9.0;;9.0;8.5;;;;;;
67700;SPS30;55380;54.156;18.708;2022-08-04T02:56:00;8.8;;8.8;8.3;;;;;;
67700;SPS30;55380;54.156;18.708;2022-08-04T02:58:01;8.8;;8.8;8.3;;;;;;
67700;SPS30;55380;54.156;18.708;2022-08-04T03:00:04;8.5;;8.5;8.0;;;;;;
67700;SPS30;55380;54.156;18.708;2022-08-04T03:02:00;9.3;;9.3;8.8;;;;;;
67700;SPS30;55380;54.156;18.708;2022-08-04T03:04:05;8.7;;8.7;8.3;;;;;;
67700;SPS30;55380;54.156;18.708;2022-08-04T03:06:10;8.4;;8.4;8.0;;;;;;
67700;SPS30;55380;54.156;18.708;2022-08-04T03:14:04;8.7;;8.7;8.3;;;;;;
67700;SPS30;55380;54.156;18.708;2022-08-04T03:16:02;8.9;;8.9;8.4;;;;;;
67700;SPS30;55380;54.156;18.708;2022-08-04T03:20:06;9.0;;9.0;8.5;;;;;;
67700;SPS30;55380;54.156;18.708;2022-08-04T03:24:09;9.1;;9.1;8.6;;;;;;
67700;SPS30;55380;54.156;18.708;2022-08-04T03:26:06;9.4;;9.4;8.9;;;;;;
67700;SPS30;55380;54.156;18.708;2022-08-04T03:30:03;8.7;;8.7;8.3;;;;;;
67700;SPS30;55380;54.156;18.708;2022-08-04T03:34:02;8.9;;8.9;8.4;;;;;;
67700;SPS30;55380;54.156;18.708;2022-08-04T03:36:08;8.6;;8.6;8.1;;;;;;
67700;SPS30;55380;54.156;18.708;2022-08-04T03:42:07;9.2;;9.2;8.7;;;;;;
67700;SPS30;55380;54.156;18.708;2022-08-04T03:44:07;9.5;;9.5;8.9;;;;;;
67700;SPS30;55380;54.156;18.708;2022-08-04T03:46:06;10.2;;10.2;9.7;;;;;;
67700;SPS30;55380;54.156;18.708;2022-08-04T03:48:05;9.6;;9.6;9.1;;;;;;
67700;SPS30;55380;54.156;18.708;2022-08-04T03:50:07;9.2;;9.2;8.7;;;;;;
67700;SPS30;55380;54.156;18.708;2022-08-04T03:52:03;9.5;;9.5;8.9;;;;;;
67700;SPS30;55380;54.156;18.708;2022-08-04T03:54:07;9.3;;9.3;8.8;;;;;;
67700;SPS30;55380;54.156;18.708;2022-08-04T03:56:07;9.2;;9.2;8.7;;;;;;
67700;SPS30;55380;54.156;18.708;2022-08-04T03:58:07;9.4;;9.4;8.9;;;;;;
67700;SPS30;55380;54.156;18.708;2022-08-04T04:00:03;10.1;;10.1;9.5;;;;;;
67700;SPS30;55380;54.156;18.708;2022-08-04T04:04:04;10.9;;10.9;10.3;;;;;;
67700;SPS30;55380;54.156;18.708;2022-08-04T04:06:07;9.7;;9.7;9.2;;;;;;
67700;SPS30;55380;54.156;18.708;2022-08-04T04:08:06;9.9;;9.9;9.4;;;;;;
67700;SPS30;55380;54.156;18.708;2022-08-04T04:10:05;9.2;;9.2;8.7;;;;;;
67700;SPS30;55380;54.156;18.708;2022-08-04T04:20:05;10.8;;10.8;10.2;;;;;;
67700;SPS30;55380;54.156;18.708;2022-08-04T04:22:04;10.4;;10.4;9.9;;;;;;
67700;SPS30;55380;54.156;18.708;2022-08-04T04:24:01;9.8;;9.8;9.3;;;;;;
67700;SPS30;55380;54.156;18.708;2022-08-04T04:26:03;10.6;;10.6;10.0;;;;;;
67700;SPS30;55380;54.156;18.708;2022-08-04T04:28:07;10.6;;10.6;10.1;;;;;;
67700;SPS30;55380;54.156;18.708;2022-08-04T04:30:02;12.2;;12.2;11.6;;;;;;
67700;SPS30;55380;54.156;18.708;2022-08-04T04:32:04;11.3;;11.3;10.7;;;;;;
67700;SPS30;55380;54.156;18.708;2022-08-04T04:34:04;11.8;;11.8;11.2;;;;;;
67700;SPS30;55380;54.156;18.708;2022-08-04T04:36:02;11.9;;11.9;11.3;;;;;;
67700;SPS30;55380;54.156;18.708;2022-08-04T04:38:12;11.2;;11.2;10.5;;;;;;
67700;SPS30;55380;54.156;18.708;2022-08-04T04:40:03;11.3;;11.3;10.7;;;;;;
67700;SPS30;55380;54.156;18.708;2022-08-04T04:42:05;11.4;;11.4;10.8;;;;;;
67700;SPS30;55380;54.156;18.708;2022-08-04T04:44:06;11.6;;11.6;10.9;;;;;;
67700;SPS30;55380;54.156;18.708;2022-08-04T04:46:02;12.3;;12.3;11.6;;;;;;
67700;SPS30;55380;54.156;18.708;2022-08-04T04:48:03;11.9;;11.9;11.3;;;;;;
67700;SPS30;55380;54.156;18.708;2022-08-04T04:50:03;13.0;;13.0;12.3;;;;;;
67700;SPS30;55380;54.156;18.708;2022-08-04T04:52:02;13.3;;13.3;12.6;;;;;;
67700;SPS30;55380;54.156;18.708;2022-08-04T04:54:03;13.2;;13.2;12.5;;;;;;
67700;SPS30;55380;54.156;18.708;2022-08-04T04:56:02;14.1;;14.1;13.3;;;;;;
67700;SPS30;55380;54.156;18.708;2022-08-04T04:58:00;12.6;;12.6;11.9;;;;;;
67700;SPS30;55380;54.156;18.708;2022-08-04T05:00:03;12.6;;12.6;11.9;;;;;;
67700;SPS30;55380;54.156;18.708;2022-08-04T05:04:06;11.9;;11.9;11.3;;;;;;
67700;SPS30;55380;54.156;18.708;2022-08-04T05:06:09;12.3;;12.3;11.6;;;;;;
67700;SPS30;55380;54.156;18.708;2022-08-04T05:08:06;11.6;;11.6;11.0;;;;;;
67700;SPS30;55380;54.156;18.708;2022-08-04T05:10:02;11.5;;11.5;10.9;;;;;;
67700;SPS30;55380;54.156;18.708;2022-08-04T05:14:00;12.4;;12.4;11.7;;;;;;
67700;SPS30;55380;54.156;18.708;2022-08-04T05:16:01;12.9;;12.9;12.2;;;;;;
67700;SPS30;55380;54.156;18.708;2022-08-04T05:18:01;12.2;;12.2;11.5;;;;;;
67700;SPS30;55380;54.156;18.708;2022-08-04T05:20:00;12.7;;12.7;12.0;;;;;;
67700;SPS30;55380;54.156;18.708;2022-08-04T05:22:01;12.2;;12.2;11.5;;;;;;
67700;SPS30;55380;54.156;18.708;2022-08-04T05:24:01;12.3;;12.3;11.7;;;;;;
67700;SPS30;55380;54.156;18.708;2022-08-04T05:26:00;12.0;;12.0;11.4;;;;;;
67700;SPS30;55380;54.156;18.708;2022-08-04T05:28:02;11.8;;11.8;11.2;;;;;;
67700;SPS30;55380;54.156;18.708;2022-08-04T05:30:01;12.4;;12.4;11.7;;;;;;
67700;SPS30;55380;54.156;18.708;2022-08-04T05:32:00;12.2;;12.2;11.5;;;;;;
67700;SPS30;55380;54.156;18.708;2022-08-04T05:34:03;13.6;;13.6;12.9;;;;;;
67700;SPS30;55380;54.156;18.708;2022-08-04T05:36:02;12.5;;12.5;11.8;;;;;;
67700;SPS30;55380;54.156;18.708;2022-08-04T05:38:00;11.8;;11.8;11.2;;;;;;
67700;SPS30;55380;54.156;18.708;2022-08-04T05:40:02;12.6;;12.6;11.9;;;;;;
67700;SPS30;55380;54.156;18.708;2022-08-04T05:42:00;13.2;;13.2;12.5;;;;;;
67700;SPS30;55380;54.156;18.708;2022-08-04T05:44:00;12.8;;12.8;12.2;;;;;;
67700;SPS30;55380;54.156;18.708;2022-08-04T05:46:00;13.1;;13.1;12.4;;;;;;
67700;SPS30;55380;54.156;18.708;2022-08-04T05:48:00;13.7;;13.7;12.9;;;;;;
67700;SPS30;55380;54.156;18.708;2022-08-04T05:50:00;14.1;;14.1;13.3;;;;;;
67700;SPS30;55380;54.156;18.708;2022-08-04T05:52:01;14.2;;14.2;13.4;;;;;;
67700;SPS30;55380;54.156;18.708;2022-08-04T05:54:00;14.2;;14.2;13.4;;;;;;
67700;SPS30;55380;54.156;18.708;2022-08-04T05:56:00;14.1;;14.1;13.3;;;;;;
67700;SPS30;55380;54.156;18.708;2022-08-04T05:58:00;14.2;;14.2;13.4;;;;;;
67700;SPS30;55380;54.156;18.708;2022-08-04T06:00:00;14.6;;14.6;13.8;;;;;;
67700;SPS30;55380;54.156;18.708;2022-08-04T06:02:00;14.2;;14.2;13.4;;;;;;
67700;SPS30;55380;54.156;18.708;2022-08-04T06:04:00;13.8;;13.8;13.1;;;;;;
67700;SPS30;55380;54.156;18.708;2022-08-04T06:06:00;14.4;;14.4;13.6;;;;;;
67700;SPS30;55380;54.156;18.708;2022-08-04T06:08:00;13.9;;13.9;13.2;;;;;;
67700;SPS30;55380;54.156;18.708;2022-08-04T06:10:00;14.1;;14.1;13.4;;;;;;
67700;SPS30;55380;54.156;18.708;2022-08-04T06:12:01;13.3;;13.3;12.6;;;;;;
67700;SPS30;55380;54.156;18.708;2022-08-04T06:14:02;13.5;;13.5;12.7;;;;;;
67700;SPS30;55380;54.156;18.708;2022-08-04T06:16:00;13.7;;13.7;12.9;;;;;;
67700;SPS30;55380;54.156;18.708;2022-08-04T06:18:01;13.6;;13.6;12.8;;;;;;
67700;SPS30;55380;54.156;18.708;2022-08-04T06:20:00;13.6;;13.6;12.9;;;;;;
67700;SPS30;55380;54.156;18.708;2022-08-04T06:22:00;13.1;;13.1;12.4;;;;;;
67700;SPS30;55380;54.156;18.708;2022-08-04T06:24:00;13.6;;13.6;12.9;;;;;;
67700;SPS30;55380;54.156;18.708;2022-08-04T06:26:00;13.4;;13.4;12.6;;;;;;
67700;SPS30;55380;54.156;18.708;2022-08-04T06:28:00;13.4;;13.4;12.7;;;;;;
67700;SPS30;55380;54.156;18.708;2022-08-04T06:30:00;12.9;;12.9;12.2;;;;;;
67700;SPS30;55380;54.156;18.708;2022-08-04T06:32:00;13.1;;13.1;12.4;;;;;;
67700;SPS30;55380;54.156;18.708;2022-08-04T06:34:00;12.8;;12.8;12.1;;;;;;
67700;SPS30;55380;54.156;18.708;2022-08-04T06:36:01;12.6;;12.6;12.0;;;;;;
67700;SPS30;55380;54.156;18.708;2022-08-04T06:38:00;13.0;;13.0;12.3;;;;;;
67700;SPS30;55380;54.156;18.708;2022-08-04T06:40:00;13.1;;13.1;12.4;;;;;;
67700;SPS30;55380;54.156;18.708;2022-08-04T06:42:00;12.4;;12.4;11.8;;;;;;
67700;SPS30;55380;54.156;18.708;2022-08-04T06:44:01;12.6;;12.6;11.9;;;;;;
67700;SPS30;55380;54.156;18.708;2022-08-04T06:46:00;12.4;;12.4;11.7;;;;;;
67700;SPS30;55380;54.156;18.708;2022-08-04T06:48:00;12.4;;12.4;11.8;;;;;;
67700;SPS30;55380;54.156;18.708;2022-08-04T06:50:00;12.6;;12.6;11.9;;;;;;
67700;SPS30;55380;54.156;18.708;2022-08-04T06:52:00;12.6;;12.6;11.9;;;;;;
67700;SPS30;55380;54.156;18.708;2022-08-04T06:54:00;12.7;;12.7;12.0;;;;;;
67700;SPS30;55380;54.156;18.708;2022-08-04T06:56:00;11.9;;11.9;11.3;;;;;;
67700;SPS30;55380;54.156;18.708;2022-08-04T06:58:00;11.7;;11.7;11.1;;;;;;
67700;SPS30;55380;54.156;18.708;2022-08-04T07:00:00;11.8;;11.8;11.2;;;;;;
67700;SPS30;55380;54.156;18.708;2022-08-04T07:02:00;12.4;;12.4;11.7;;;;;;
67700;SPS30;55380;54.156;18.708;2022-08-04T07:04:00;11.5;;11.5;10.8;;;;;;
67700;SPS30;55380;54.156;18.708;2022-08-04T07:06:00;11.9;;11.9;11.2;;;;;;
67700;SPS30;55380;54.156;18.708;2022-08-04T07:08:00;12.1;;12.1;11.4;;;;;;
67700;SPS30;55380;54.156;18.708;2022-08-04T07:10:00;11.8;;11.8;11.1;;;;;;
67700;SPS30;55380;54.156;18.708;2022-08-04T07:12:00;11.3;;11.3;10.7;;;;;;
67700;SPS30;55380;54.156;18.708;2022-08-04T07:14:00;12.4;;12.4;11.7;;;;;;
67700;SPS30;55380;54.156;18.708;2022-08-04T07:16:00;12.4;;12.4;11.7;;;;;;
67700;SPS30;55380;54.156;18.708;2022-08-04T07:18:00;11.8;;11.8;11.1;;;;;;
67700;SPS30;55380;54.156;18.708;2022-08-04T07:20:00;11.7;;11.7;11.0;;;;;;
67700;SPS30;55380;54.156;18.708;2022-08-04T07:22:00;11.8;;11.8;11.2;;;;;;
67700;SPS30;55380;54.156;18.708;2022-08-04T07:24:00;11.7;;11.7;11.1;;;;;;
67700;SPS30;55380;54.156;18.708;2022-08-04T07:26:00;11.9;;11.9;11.3;;;;;;
67700;SPS30;55380;54.156;18.708;2022-08-04T07:28:00;11.5;;11.5;10.9;;;;;;
67700;SPS30;55380;54.156;18.708;2022-08-04T07:30:00;11.7;;11.7;11.1;;;;;;
67700;SPS30;55380;54.156;18.708;2022-08-04T07:32:00;11.3;;11.3;10.7;;;;;;
67700;SPS30;55380;54.156;18.708;2022-08-04T07:34:00;11.6;;11.6;11.0;;;;;;
67700;SPS30;55380;54.156;18.708;2022-08-04T07:36:00;11.4;;11.4;10.8;;;;;;
67700;SPS30;55380;54.156;18.708;2022-08-04T07:38:00;11.1;;11.1;10.5;;;;;;
67700;SPS30;55380;54.156;18.708;2022-08-04T07:40:00;11.5;;11.5;10.9;;;;;;
67700;SPS30;55380;54.156;18.708;2022-08-04T07:42:00;11.4;;11.4;10.8;;;;;;
67700;SPS30;55380;54.156;18.708;2022-08-04T07:44:00;11.7;;11.7;11.1;;;;;;
67700;SPS30;55380;54.156;18.708;2022-08-04T07:46:00;11.6;;11.6;11.0;;;;;;
67700;SPS30;55380;54.156;18.708;2022-08-04T07:48:00;11.7;;11.7;11.1;;;;;;
67700;SPS30;55380;54.156;18.708;2022-08-04T07:50:00;10.5;;10.5;9.9;;;;;;
67700;SPS30;55380;54.156;18.708;2022-08-04T07:52:00;10.5;;10.5;9.9;;;;;;
67700;SPS30;55380;54.156;18.708;2022-08-04T07:54:00;11.2;;11.2;10.6;;;;;;
67700;SPS30;55380;54.156;18.708;2022-08-04T07:56:00;10.3;;10.3;9.8;;;;;;
67700;SPS30;55380;54.156;18.708;2022-08-04T07:58:00;10.8;;10.8;10.2;;;;;;
67700;SPS30;55380;54.156;18.708;2022-08-04T08:00:00;10.5;;10.5;9.9;;;;;;
67700;SPS30;55380;54.156;18.708;2022-08-04T08:02:00;10.6;;10.6;10.1;;;;;;
67700;SPS30;55380;54.156;18.708;2022-08-04T08:04:00;10.4;;10.4;9.8;;;;;;
67700;SPS30;55380;54.156;18.708;2022-08-04T08:06:00;10.4;;10.4;9.9;;;;;;
67700;SPS30;55380;54.156;18.708;2022-08-04T08:08:00;10.8;;10.8;10.2;;;;;;
67700;SPS30;55380;54.156;18.708;2022-08-04T08:10:00;10.9;;10.9;10.3;;;;;;
67700;SPS30;55380;54.156;18.708;2022-08-04T08:12:00;10.3;;10.3;9.7;;;;;;
67700;SPS30;55380;54.156;18.708;2022-08-04T08:14:00;10.1;;10.1;9.6;;;;;;
67700;SPS30;55380;54.156;18.708;2022-08-04T08:16:00;10.7;;10.7;10.1;;;;;;
67700;SPS30;55380;54.156;18.708;2022-08-04T08:18:00;10.7;;10.7;10.1;;;;;;
67700;SPS30;55380;54.156;18.708;2022-08-04T08:20:00;10.8;;10.8;10.2;;;;;;
67700;SPS30;55380;54.156;18.708;2022-08-04T08:22:00;10.7;;10.7;10.1;;;;;;
67700;SPS30;55380;54.156;18.708;2022-08-04T08:24:00;10.5;;10.5;9.9;;;;;;
67700;SPS30;55380;54.156;18.708;2022-08-04T08:26:00;9.4;;9.4;8.9;;;;;;
67700;SPS30;55380;54.156;18.708;2022-08-04T08:28:01;8.8;;8.8;8.4;;;;;;
67700;SPS30;55380;54.156;18.708;2022-08-04T08:30:00;9.4;;9.4;8.9;;;;;;
67700;SPS30;55380;54.156;18.708;2022-08-04T08:32:00;9.3;;9.3;8.8;;;;;;
67700;SPS30;55380;54.156;18.708;2022-08-04T08:34:00;8.5;;8.5;8.0;;;;;;
67700;SPS30;55380;54.156;18.708;2022-08-04T08:36:00;8.3;;8.3;7.8;;;;;;
67700;SPS30;55380;54.156;18.708;2022-08-04T08:38:01;8.2;;8.2;7.8;;;;;;
67700;SPS30;55380;54.156;18.708;2022-08-04T08:40:05;8.9;;8.9;8.4;;;;;;
67700;SPS30;55380;54.156;18.708;2022-08-04T08:42:15;9.2;;9.2;8.7;;;;;;
67700;SPS30;55380;54.156;18.708;2022-08-04T08:44:04;9.7;;9.7;9.1;;;;;;
67700;SPS30;55380;54.156;18.708;2022-08-04T08:46:09;9.7;;9.7;9.2;;;;;;
67700;SPS30;55380;54.156;18.708;2022-08-04T08:48:06;9.0;;9.0;8.5;;;;;;
67700;SPS30;55380;54.156;18.708;2022-08-04T08:50:02;8.7;;8.7;8.2;;;;;;
67700;SPS30;55380;54.156;18.708;2022-08-04T08:52:03;9.1;;9.1;8.6;;;;;;
67700;SPS30;55380;54.156;18.708;2022-08-04T08:54:07;9.5;;9.5;9.0;;;;;;
67700;SPS30;55380;54.156;18.708;2022-08-04T08:56:04;8.9;;8.9;8.4;;;;;;
67700;SPS30;55380;54.156;18.708;2022-08-04T08:58:05;9.1;;9.1;8.6;;;;;;
67700;SPS30;55380;54.156;18.708;2022-08-04T09:00:03;8.2;;8.2;7.8;;;;;;
67700;SPS30;55380;54.156;18.708;2022-08-04T09:02:05;8.4;;8.4;8.0;;;;;;
67700;SPS30;55380;54.156;18.708;2022-08-04T09:04:06;9.1;;9.1;8.6;;;;;;
67700;SPS30;55380;54.156;18.708;2022-08-04T09:06:03;9.2;;9.2;8.7;;;;;;
67700;SPS30;55380;54.156;18.708;2022-08-04T09:08:05;8.6;;8.6;8.1;;;;;;
67700;SPS30;55380;54.156;18.708;2022-08-04T09:10:02;8.5;;8.5;8.1;;;;;;
67700;SPS30;55380;54.156;18.708;2022-08-04T09:12:04;8.8;;8.8;8.3;;;;;;
67700;SPS30;55380;54.156;18.708;2022-08-04T09:14:01;9.5;;9.5;9.0;;;;;;
67700;SPS30;55380;54.156;18.708;2022-08-04T09:16:02;9.4;;9.4;8.9;;;;;;
67700;SPS30;55380;54.156;18.708;2022-08-04T09:18:01;8.8;;8.8;8.3;;;;;;
67700;SPS30;55380;54.156;18.708;2022-08-04T09:20:01;8.8;;8.8;8.4;;;;;;
67700;SPS30;55380;54.156;18.708;2022-08-04T09:22:00;8.1;;8.1;7.7;;;;;;
67700;SPS30;55380;54.156;18.708;2022-08-04T09:24:02;8.2;;8.2;7.8;;;;;;
67700;SPS30;55380;54.156;18.708;2022-08-04T09:26:01;8.5;;8.5;8.0;;;;;;
67700;SPS30;55380;54.156;18.708;2022-08-04T09:28:01;8.9;;8.9;8.5;;;;;;
67700;SPS30;55380;54.156;18.708;2022-08-04T09:30:00;8.9;;8.9;8.4;;;;;;
67700;SPS30;55380;54.156;18.708;2022-08-04T09:32:02;8.9;;8.9;8.4;;;;;;
67700;SPS30;55380;54.156;18.708;2022-08-04T09:34:03;8.7;;8.7;8.2;;;;;;
67700;SPS30;55380;54.156;18.708;2022-08-04T09:36:02;8.1;;8.1;7.7;;;;;;
67700;SPS30;55380;54.156;18.708;2022-08-04T09:38:02;8.2;;8.2;7.7;;;;;;
67700;SPS30;55380;54.156;18.708;2022-08-04T09:40:02;7.7;;7.7;7.3;;;;;;
67700;SPS30;55380;54.156;18.708;2022-08-04T09:42:03;7.6;;7.6;7.2;;;;;;
67700;SPS30;55380;54.156;18.708;2022-08-04T09:44:00;8.2;;8.2;7.8;;;;;;
67700;SPS30;55380;54.156;18.708;2022-08-04T09:46:01;8.7;;8.7;8.2;;;;;;
67700;SPS30;55380;54.156;18.708;2022-08-04T09:48:03;8.8;;8.8;8.3;;;;;;
67700;SPS30;55380;54.156;18.708;2022-08-04T09:50:02;8.3;;8.3;7.9;;;;;;
67700;SPS30;55380;54.156;18.708;2022-08-04T09:52:05;8.9;;8.9;8.5;;;;;;
67700;SPS30;55380;54.156;18.708;2022-08-04T09:54:01;8.5;;8.5;8.1;;;;;;
67700;SPS30;55380;54.156;18.708;2022-08-04T09:56:02;8.3;;8.3;7.9;;;;;;
67700;SPS30;55380;54.156;18.708;2022-08-04T09:58:01;7.8;;7.8;7.4;;;;;;
67700;SPS30;55380;54.156;18.708;2022-08-04T10:00:02;8.1;;8.1;7.6;;;;;;
67700;SPS30;55380;54.156;18.708;2022-08-04T10:02:02;7.7;;7.7;7.3;;;;;;
67700;SPS30;55380;54.156;18.708;2022-08-04T10:04:00;7.4;;7.4;7.0;;;;;;
67700;SPS30;55380;54.156;18.708;2022-08-04T10:06:05;7.2;;7.2;6.8;;;;;;
67700;SPS30;55380;54.156;18.708;2022-08-04T10:08:03;7.8;;7.8;7.3;;;;;;
67700;SPS30;55380;54.156;18.708;2022-08-04T10:10:02;7.5;;7.5;7.1;;;;;;
67700;SPS30;55380;54.156;18.708;2022-08-04T10:12:04;8.0;;8.0;7.5;;;;;;
67700;SPS30;55380;54.156;18.708;2022-08-04T10:14:01;7.8;;7.8;7.3;;;;;;
67700;SPS30;55380;54.156;18.708;2022-08-04T10:16:04;7.2;;7.2;6.9;;;;;;
67700;SPS30;55380;54.156;18.708;2022-08-04T10:18:06;7.6;;7.6;7.2;;;;;;
67700;SPS30;55380;54.156;18.708;2022-08-04T10:20:04;7.8;;7.8;7.4;;;;;;
67700;SPS30;55380;54.156;18.708;2022-08-04T10:22:05;8.0;;8.0;7.6;;;;;;
67700;SPS30;55380;54.156;18.708;2022-08-04T10:24:05;8.6;;8.6;8.1;;;;;;
67700;SPS30;55380;54.156;18.708;2022-08-04T10:26:07;8.5;;8.5;8.0;;;;;;
67700;SPS30;55380;54.156;18.708;2022-08-04T10:28:02;8.2;;8.2;7.8;;;;;;
67700;SPS30;55380;54.156;18.708;2022-08-04T10:30:02;8.2;;8.2;7.8;;;;;;
67700;SPS30;55380;54.156;18.708;2022-08-04T10:32:03;8.3;;8.3;7.8;;;;;;
67700;SPS30;55380;54.156;18.708;2022-08-04T10:34:02;8.0;;8.0;7.5;;;;;;
67700;SPS30;55380;54.156;18.708;2022-08-04T10:36:00;8.6;;8.6;8.1;;;;;;
67700;SPS30;55380;54.156;18.708;2022-08-04T10:38:00;9.1;;9.1;8.6;;;;;;
67700;SPS30;55380;54.156;18.708;2022-08-04T10:40:02;8.7;;8.7;8.2;;;;;;
67700;SPS30;55380;54.156;18.708;2022-08-04T10:42:02;8.8;;8.8;8.4;;;;;;
67700;SPS30;55380;54.156;18.708;2022-08-04T10:44:03;7.9;;7.9;7.4;;;;;;
67700;SPS30;55380;54.156;18.708;2022-08-04T10:46:01;8.6;;8.6;8.1;;;;;;
67700;SPS30;55380;54.156;18.708;2022-08-04T10:48:01;8.4;;8.4;8.0;;;;;;
67700;SPS30;55380;54.156;18.708;2022-08-04T10:50:00;8.2;;8.2;7.8;;;;;;
67700;SPS30;55380;54.156;18.708;2022-08-04T10:52:02;8.4;;8.4;7.9;;;;;;
67700;SPS30;55380;54.156;18.708;2022-08-04T10:54:01;7.4;;7.4;7.0;;;;;;
67700;SPS30;55380;54.156;18.708;2022-08-04T10:56:02;7.8;;7.8;7.4;;;;;;
67700;SPS30;55380;54.156;18.708;2022-08-04T10:58:01;8.3;;8.3;7.8;;;;;;
67700;SPS30;55380;54.156;18.708;2022-08-04T11:00:01;8.3;;8.3;7.8;;;;;;
67700;SPS30;55380;54.156;18.708;2022-08-04T11:02:04;7.9;;7.9;7.5;;;;;;
67700;SPS30;55380;54.156;18.708;2022-08-04T11:04:00;7.9;;7.9;7.5;;;;;;
67700;SPS30;55380;54.156;18.708;2022-08-04T11:06:00;7.5;;7.5;7.1;;;;;;
67700;SPS30;55380;54.156;18.708;2022-08-04T11:08:03;7.5;;7.5;7.1;;;;;;
67700;SPS30;55380;54.156;18.708;2022-08-04T11:10:00;7.4;;7.4;7.0;;;;;;
67700;SPS30;55380;54.156;18.708;2022-08-04T11:12:02;7.3;;7.3;6.9;;;;;;
67700;SPS30;55380;54.156;18.708;2022-08-04T11:14:01;7.5;;7.5;7.1;;;;;;
67700;SPS30;55380;54.156;18.708;2022-08-04T11:16:01;7.3;;7.3;6.9;;;;;;
67700;SPS30;55380;54.156;18.708;2022-08-04T11:18:01;7.5;;7.5;7.1;;;;;;
67700;SPS30;55380;54.156;18.708;2022-08-04T11:20:01;8.0;;8.0;7.6;;;;;;
67700;SPS30;55380;54.156;18.708;2022-08-04T11:22:02;7.8;;7.8;7.3;;;;;;
67700;SPS30;55380;54.156;18.708;2022-08-04T11:24:00;7.8;;7.8;7.4;;;;;;
67700;SPS30;55380;54.156;18.708;2022-08-04T11:26:03;7.2;;7.2;6.8;;;;;;
67700;SPS30;55380;54.156;18.708;2022-08-04T11:28:02;7.0;;7.0;6.6;;;;;;
67700;SPS30;55380;54.156;18.708;2022-08-04T11:30:02;7.4;;7.4;7.0;;;;;;
67700;SPS30;55380;54.156;18.708;2022-08-04T11:32:01;7.0;;7.0;6.6;;;;;;
67700;SPS30;55380;54.156;18.708;2022-08-04T11:34:02;7.2;;7.2;6.8;;;;;;